createdAt,value
2023-05-13T00:00:52.844Z,3.70
2023-05-13T00:03:26.744Z,2.40
2023-05-13T00:06:01.304Z,4.40
2023-05-13T00:08:35.542Z,5.70
2023-05-13T00:11:10.161Z,6.90
2023-05-13T00:13:38.490Z,6.30
2023-05-13T00:16:13.639Z,4.20
2023-05-13T00:18:41.339Z,5.70
2023-05-13T00:21:16.711Z,5.10
2023-05-13T00:23:50.044Z,4.50
2023-05-13T00:26:23.599Z,6.00
2023-05-13T00:28:50.979Z,5.70
2023-05-13T00:31:23.611Z,2.60
2023-05-13T00:33:57.789Z,6.60
2023-05-13T00:36:30.314Z,3.50
2023-05-13T00:38:54.476Z,4.30
2023-05-13T00:41:28.841Z,4.60
2023-05-13T00:44:03.109Z,5.80
2023-05-13T00:46:38.975Z,6.80
2023-05-13T00:49:17.481Z,5.20
2023-05-13T00:51:51.693Z,8.70
2023-05-13T00:54:25.650Z,4.40
2023-05-13T00:57:00.628Z,5.20
2023-05-13T00:59:35.415Z,3.60
2023-05-13T01:02:16.796Z,4.80
2023-05-13T01:04:54.166Z,8.50
2023-05-13T01:07:44.608Z,5.40
2023-05-13T01:10:19.458Z,5.50
2023-05-13T01:12:57.182Z,5.50
2023-05-13T01:15:32.508Z,5.70
2023-05-13T01:18:36.133Z,6.20
2023-05-13T01:21:07.275Z,6.10
2023-05-13T01:23:33.656Z,4.40
2023-05-13T01:26:02.563Z,4.80
2023-05-13T01:28:32.002Z,3.40
2023-05-13T01:31:06.218Z,4.30
2023-05-13T01:33:28.626Z,5.70
2023-05-13T01:36:03.849Z,5.40
2023-05-13T01:38:31.277Z,6.50
2023-05-13T01:40:50.354Z,4.40
2023-05-13T01:43:24.056Z,5.20
2023-05-13T01:46:01.532Z,6.70
2023-05-13T01:48:35.623Z,8.20
2023-05-13T01:51:10.057Z,5.90
2023-05-13T01:53:42.467Z,7.60
2023-05-13T01:56:17.700Z,5.80
2023-05-13T01:58:45.076Z,5.40
2023-05-13T02:01:08.242Z,5.10
2023-05-13T02:03:31.357Z,3.00
2023-05-13T02:06:05.641Z,2.30
2023-05-13T02:08:33.949Z,1.10
2023-05-13T02:11:08.173Z,0.90
2023-05-13T02:13:34.526Z,0.80
2023-05-13T02:16:06.565Z,0.50
2023-05-13T02:18:35.018Z,0.90
2023-05-13T02:21:01.623Z,0.90
2023-05-13T02:23:29.571Z,0.90
2023-05-13T02:25:49.570Z,3.80
2023-05-13T02:28:16.270Z,5.10
2023-05-13T02:30:43.048Z,5.50
2023-05-13T02:33:16.369Z,7.20
2023-05-13T02:35:51.005Z,5.00
2023-05-13T02:38:12.574Z,2.70
2023-05-13T02:40:32.431Z,5.50
2023-05-13T02:42:57.644Z,5.90
2023-05-13T02:45:22.701Z,6.40
2023-05-13T02:47:50.247Z,6.60
2023-05-13T02:50:18.565Z,7.20
2023-05-13T02:52:45.730Z,5.90
2023-05-13T02:55:19.501Z,14.90
2023-05-13T02:57:43.189Z,2.90
2023-05-13T03:00:12.183Z,1.30
2023-05-13T03:02:44.870Z,1.10
2023-05-13T03:05:13.118Z,0.90
2023-05-13T03:07:37.012Z,1.00
2023-05-13T03:09:56.943Z,1.50
2023-05-13T03:12:22.934Z,0.90
2023-05-13T03:15:00.553Z,1.30
2023-05-13T03:17:36.017Z,1.10
2023-05-13T03:19:53.386Z,1.00
2023-05-13T03:24:33.230Z,0.80
2023-05-13T03:27:01.280Z,1.00
2023-05-13T03:29:34.912Z,1.00
2023-05-13T03:32:10.359Z,1.00
2023-05-13T03:34:30.003Z,1.10
2023-05-13T03:37:06.857Z,1.30
2023-05-13T03:39:30.252Z,1.10
2023-05-13T03:42:04.245Z,1.20
2023-05-13T03:44:31.758Z,2.10
2023-05-13T03:47:05.948Z,1.60
2023-05-13T03:49:42.135Z,3.30
2023-05-13T03:52:16.329Z,2.00
2023-05-13T03:54:47.962Z,7.20
2023-05-13T03:57:17.407Z,5.40
2023-05-13T04:00:03.179Z,13.30
2023-05-13T04:02:34.455Z,9.90
2023-05-13T04:04:54.983Z,12.50
2023-05-13T04:07:31.506Z,12.40
2023-05-13T04:09:56.198Z,10.80
2023-05-13T04:12:34.644Z,9.20
2023-05-13T04:15:29.765Z,5.40
2023-05-13T04:17:49.547Z,11.40
2023-05-13T04:20:18.058Z,3.40
2023-05-13T04:23:45.556Z,11.60
2023-05-13T04:28:20.019Z,1.60
2023-05-13T04:30:46.063Z,2.80
2023-05-13T04:33:12.235Z,2.70
2023-05-13T04:35:54.931Z,1.40
2023-05-13T04:38:21.053Z,1.90
2023-05-13T04:40:55.567Z,2.60
2023-05-13T04:43:33.438Z,1.50
2023-05-13T04:45:57.943Z,2.00
2023-05-13T04:48:14.980Z,1.60
2023-05-13T04:50:47.916Z,3.20
2023-05-13T04:53:09.188Z,4.10
2023-05-13T04:55:37.020Z,8.30
2023-05-13T04:58:14.552Z,9.10
2023-05-13T05:00:42.178Z,31.50
2023-05-13T05:03:16.717Z,15.50
2023-05-13T05:05:34.318Z,5.50
2023-05-13T05:07:55.253Z,24.40
2023-05-13T05:10:16.652Z,10.40
2023-05-13T05:12:42.869Z,17.10
2023-05-13T05:15:02.656Z,12.30
2023-05-13T05:17:22.788Z,4.40
2023-05-13T05:19:39.865Z,4.10
2023-05-13T05:22:01.374Z,2.20
2023-05-13T05:24:28.189Z,1.70
2023-05-13T05:26:46.216Z,8.30
2023-05-13T05:29:19.570Z,2.90
2023-05-13T05:31:40.218Z,1.50
2023-05-13T05:34:02.217Z,1.40
2023-05-13T05:36:19.370Z,7.30
2023-05-13T05:38:49.038Z,7.70
2023-05-13T05:41:23.271Z,2.20
2023-05-13T05:43:41.627Z,4.30
2023-05-13T05:45:58.807Z,5.00
2023-05-13T05:48:21.236Z,2.70
2023-05-13T05:50:41.389Z,5.80
2023-05-13T05:53:10.167Z,2.50
2023-05-13T05:55:47.431Z,3.30
2023-05-13T05:58:06.872Z,2.30
2023-05-13T06:00:26.931Z,3.30
2023-05-13T06:03:00.535Z,2.40
2023-05-13T06:05:21.471Z,9.30
2023-05-13T06:07:46.390Z,5.10
2023-05-13T06:10:09.755Z,2.50
2023-05-13T06:12:32.384Z,9.50
2023-05-13T06:15:36.866Z,9.50
2023-05-13T06:18:23.823Z,5.60
2023-05-13T06:20:45.891Z,5.70
2023-05-13T06:23:12.034Z,8.70
2023-05-13T06:25:45.977Z,4.40
2023-05-13T06:28:09.604Z,3.80
2023-05-13T06:30:42.867Z,3.70
2023-05-13T06:33:09.383Z,6.90
2023-05-13T06:35:44.126Z,7.70
2023-05-13T06:38:18.831Z,3.20
2023-05-13T06:40:47.073Z,3.80
2023-05-13T06:45:39.617Z,4.30
2023-05-13T06:50:36.376Z,3.30
2023-05-13T06:53:03.598Z,6.10
2023-05-13T06:55:30.645Z,13.80
2023-05-13T06:58:04.467Z,3.30
2023-05-13T07:00:33.107Z,3.20
2023-05-13T07:03:05.653Z,3.00
2023-05-13T07:08:26.142Z,2.80
2023-05-13T07:10:52.733Z,2.20
2023-05-13T07:13:27.406Z,1.90
2023-05-13T07:16:02.431Z,3.10
2023-05-13T07:18:36.273Z,2.60
2023-05-13T07:21:02.641Z,2.00
2023-05-13T07:23:36.916Z,1.80
2023-05-13T07:26:11.615Z,10.40
2023-05-13T07:28:44.679Z,2.80
2023-05-13T07:31:19.884Z,2.30
2023-05-13T07:33:54.022Z,2.70
2023-05-13T07:36:27.286Z,3.70
2023-05-13T07:38:49.558Z,2.00
2023-05-13T07:41:24.673Z,1.80
2023-05-13T07:43:59.635Z,2.10
2023-05-13T07:46:33.214Z,1.70
2023-05-13T07:49:09.729Z,2.30
2023-05-13T07:51:37.335Z,2.60
2023-05-13T07:54:10.818Z,5.70
2023-05-13T07:56:45.216Z,2.10
2023-05-13T07:59:19.140Z,3.40
2023-05-13T08:01:52.490Z,3.20
2023-05-13T08:04:27.886Z,10.00
2023-05-13T08:07:02.087Z,7.20
2023-05-13T08:09:30.385Z,42.30
2023-05-13T08:12:03.833Z,6.00
2023-05-13T08:14:29.576Z,3.00
2023-05-13T08:17:02.651Z,8.60
2023-05-13T08:19:36.053Z,7.60
2023-05-13T08:22:16.058Z,5.50
2023-05-13T08:24:44.190Z,2.50
2023-05-13T08:27:18.220Z,2.60
2023-05-13T08:29:42.952Z,9.50
2023-05-13T08:32:04.765Z,14.20
2023-05-13T08:34:38.067Z,39.90
2023-05-13T08:37:12.460Z,4.70
2023-05-13T08:39:45.791Z,4.00
2023-05-13T08:42:20.368Z,3.30
2023-05-13T08:44:55.567Z,4.20
2023-05-13T08:47:36.908Z,9.40
2023-05-13T08:50:14.059Z,7.80
2023-05-13T08:52:47.730Z,5.20
2023-05-13T08:55:21.338Z,8.80
2023-05-13T08:57:54.722Z,12.00
2023-05-13T09:00:29.644Z,13.70
2023-05-13T09:03:02.957Z,5.00
2023-05-13T09:08:14.047Z,9.10
2023-05-13T09:10:48.488Z,5.90
2023-05-13T09:13:14.565Z,4.80
2023-05-13T09:15:49.075Z,5.00
2023-05-13T09:18:18.025Z,2.20
2023-05-13T09:20:52.071Z,1.80
2023-05-13T09:23:26.660Z,2.40
2023-05-13T09:26:01.179Z,8.70
2023-05-13T09:28:24.694Z,4.50
2023-05-13T09:31:00.574Z,5.40
2023-05-13T09:33:36.362Z,12.10
2023-05-13T09:36:19.588Z,4.60
2023-05-13T09:38:42.972Z,8.20
2023-05-13T09:41:17.183Z,9.50
2023-05-13T09:43:45.859Z,5.90
2023-05-13T09:46:21.212Z,2.20
2023-05-13T09:51:19.660Z,2.70
2023-05-13T09:53:53.977Z,5.70
2023-05-13T09:56:28.823Z,7.20
2023-05-13T09:59:03.950Z,2.30
2023-05-13T10:01:32.743Z,3.10
2023-05-13T10:03:57.795Z,4.40
2023-05-13T10:06:26.321Z,4.00
2023-05-13T10:08:54.089Z,3.60
2023-05-13T10:11:30.666Z,5.20
2023-05-13T10:14:06.853Z,2.80
2023-05-13T10:16:40.672Z,4.30
2023-05-13T10:19:15.490Z,4.00
2023-05-13T10:21:49.191Z,2.50
2023-05-13T10:24:23.170Z,4.30
2023-05-13T10:26:59.560Z,3.70
2023-05-13T10:29:35.172Z,5.80
2023-05-13T10:32:09.756Z,7.40
2023-05-13T10:34:46.264Z,11.50
2023-05-13T10:37:42.524Z,8.10
2023-05-13T10:41:09.221Z,6.70
2023-05-13T10:43:42.756Z,3.20
2023-05-13T10:46:22.634Z,6.60
2023-05-13T10:49:01.021Z,3.70
2023-05-13T10:51:29.952Z,19.80
2023-05-13T10:53:57.550Z,22.90
2023-05-13T10:56:15.545Z,17.30
2023-05-13T10:58:41.759Z,10.30
2023-05-13T11:01:20.976Z,5.60
2023-05-13T11:04:01.793Z,3.30
2023-05-13T11:06:34.205Z,1.50
2023-05-13T11:09:09.643Z,1.40
2023-05-13T11:11:43.055Z,1.70
2023-05-13T11:14:23.490Z,1.80
2023-05-13T11:17:11.189Z,1.50
2023-05-13T11:19:49.372Z,2.10
2023-05-13T11:22:19.085Z,1.30
2023-05-13T11:24:48.321Z,1.40
2023-05-13T11:27:23.723Z,1.50
2023-05-13T11:29:56.164Z,1.70
2023-05-13T11:32:58.529Z,1.30
2023-05-13T11:35:33.600Z,1.30
2023-05-13T11:38:08.658Z,1.40
2023-05-13T11:40:31.888Z,1.30
2023-05-13T11:42:54.520Z,1.50
2023-05-13T11:45:16.928Z,1.40
2023-05-13T11:47:50.461Z,1.50
2023-05-13T11:50:28.758Z,2.40
2023-05-13T11:53:03.447Z,2.40
2023-05-13T11:55:38.203Z,1.60
2023-05-13T11:58:16.601Z,1.80
2023-05-13T12:00:46.356Z,1.40
2023-05-13T12:03:20.443Z,2.00
2023-05-13T12:06:03.442Z,2.00
2023-05-13T12:08:37.327Z,1.50
2023-05-13T12:11:14.137Z,1.80
2023-05-13T12:13:47.600Z,2.00
2023-05-13T12:16:20.776Z,1.60
2023-05-13T12:19:07.456Z,1.60
2023-05-13T12:21:41.392Z,1.60
2023-05-13T12:24:19.358Z,3.00
2023-05-13T12:26:53.588Z,1.90
2023-05-13T12:29:19.077Z,1.60
2023-05-13T12:31:36.199Z,1.60
2023-05-13T12:34:10.061Z,1.80
2023-05-13T12:36:43.504Z,2.10
2023-05-13T12:39:11.917Z,1.70
2023-05-13T12:41:53.989Z,1.70
2023-05-13T12:44:22.182Z,1.90
2023-05-13T12:47:00.493Z,2.30
2023-05-13T12:49:26.230Z,2.30
2023-05-13T12:52:00.746Z,3.00
2023-05-13T12:54:27.787Z,2.30
2023-05-13T12:56:51.204Z,1.90
2023-05-13T12:59:17.957Z,2.00
2023-05-13T13:01:41.155Z,2.20
2023-05-13T13:04:09.077Z,1.70
2023-05-13T13:06:36.113Z,1.40
2023-05-13T13:09:10.221Z,2.30
2023-05-13T13:11:45.850Z,1.80
2023-05-13T13:14:10.178Z,1.90
2023-05-13T13:16:43.382Z,1.50
2023-05-13T13:19:11.124Z,1.30
2023-05-13T13:21:47.630Z,1.90
2023-05-13T13:24:15.100Z,1.60
2023-05-13T13:26:49.949Z,1.80
2023-05-13T13:29:23.162Z,3.00
2023-05-13T13:32:00.784Z,1.70
2023-05-13T13:34:35.288Z,1.30
2023-05-13T13:37:09.922Z,1.70
2023-05-13T13:39:44.541Z,1.50
2023-05-13T13:42:19.324Z,2.50
2023-05-13T13:44:54.404Z,1.80
2023-05-13T13:47:29.301Z,1.80
2023-05-13T13:50:03.851Z,2.00
2023-05-13T13:52:31.425Z,2.50
2023-05-13T13:55:06.235Z,2.40
2023-05-13T13:57:35.907Z,2.10
2023-05-13T14:00:21.527Z,3.70
2023-05-13T14:02:57.855Z,2.30
2023-05-13T14:05:31.809Z,1.70
2023-05-13T14:10:28.809Z,18.30
2023-05-13T14:12:51.114Z,10.70
2023-05-13T14:15:25.485Z,6.40
2023-05-13T14:17:59.605Z,12.70
2023-05-13T14:20:30.183Z,6.40
2023-05-13T14:22:56.405Z,6.30
2023-05-13T14:25:30.664Z,5.10
2023-05-13T14:28:04.945Z,3.30
2023-05-13T14:30:28.722Z,3.00
2023-05-13T14:32:56.499Z,10.00
2023-05-13T14:35:30.428Z,3.10
2023-05-13T14:37:59.564Z,2.80
2023-05-13T14:43:22.952Z,4.80
2023-05-13T14:45:48.509Z,2.70
2023-05-13T14:48:15.617Z,2.20
2023-05-13T14:50:42.137Z,2.10
2023-05-13T14:53:15.739Z,10.80
2023-05-13T14:55:51.245Z,5.10
2023-05-13T14:58:46.226Z,4.20
2023-05-13T15:01:13.874Z,10.20
2023-05-13T15:03:35.927Z,6.60
2023-05-13T15:06:11.806Z,47.40
2023-05-13T15:08:44.326Z,52.40
2023-05-13T15:11:12.310Z,42.60
2023-05-13T15:13:40.376Z,34.40
2023-05-13T15:16:15.171Z,32.80
2023-05-13T15:18:39.721Z,36.40
2023-05-13T15:21:14.127Z,34.50
2023-05-13T15:23:37.927Z,36.20
2023-05-13T15:26:07.768Z,38.80
2023-05-13T15:28:43.451Z,36.20
2023-05-13T15:31:18.535Z,35.60
2023-05-13T15:33:52.830Z,34.40
2023-05-13T15:36:25.582Z,31.80
2023-05-13T15:38:48.588Z,29.10
2023-05-13T15:41:17.070Z,34.60
2023-05-13T15:43:43.262Z,33.90
2023-05-13T15:46:19.338Z,22.20
2023-05-13T15:48:52.121Z,19.90
2023-05-13T15:51:19.352Z,11.60
2023-05-13T15:53:53.941Z,12.40
2023-05-13T15:56:21.545Z,14.30
2023-05-13T15:58:56.913Z,19.10
2023-05-13T16:01:19.835Z,19.90
2023-05-13T16:03:54.478Z,14.20
2023-05-13T16:06:21.632Z,10.90
2023-05-13T16:08:56.756Z,10.70
2023-05-13T16:11:25.878Z,12.80
2023-05-13T16:14:00.519Z,12.60
2023-05-13T16:16:29.598Z,12.40
2023-05-13T16:18:58.296Z,14.10
2023-05-13T16:21:26.116Z,14.20
2023-05-13T16:24:02.505Z,20.00
2023-05-13T16:26:32.300Z,9.90
2023-05-13T16:28:55.221Z,11.10
2023-05-13T16:31:26.588Z,7.80
2023-05-13T16:33:54.741Z,8.10
2023-05-13T16:36:28.929Z,12.90
2023-05-13T16:38:56.304Z,12.00
2023-05-13T16:41:30.749Z,9.60
2023-05-13T16:43:58.922Z,11.50
2023-05-13T16:46:36.599Z,10.10
2023-05-13T16:49:11.565Z,11.20
2023-05-13T16:51:45.281Z,9.40
2023-05-13T16:54:22.368Z,9.30
2023-05-13T16:56:49.027Z,9.70
2023-05-13T16:59:28.122Z,10.70
2023-05-13T17:04:27.755Z,4.00
2023-05-13T17:07:03.192Z,1.40
2023-05-13T17:09:37.653Z,1.40
2023-05-13T17:12:11.710Z,2.90
2023-05-13T17:14:46.639Z,1.20
2023-05-13T17:17:20.335Z,1.10
2023-05-13T17:19:53.818Z,1.30
2023-05-13T17:22:16.831Z,1.10
2023-05-13T17:24:50.207Z,1.50
2023-05-13T17:27:27.615Z,0.90
2023-05-13T17:30:02.428Z,1.00
2023-05-13T17:32:29.617Z,0.80
2023-05-13T17:34:56.916Z,0.90
2023-05-13T17:37:30.928Z,0.80
2023-05-13T17:40:05.388Z,0.70
2023-05-13T17:42:38.229Z,0.60
2023-05-13T17:45:04.753Z,0.90
2023-05-13T17:47:38.780Z,0.80
2023-05-13T17:50:15.441Z,0.70
2023-05-13T17:52:37.699Z,0.60
2023-05-13T17:55:13.610Z,0.80
2023-05-13T17:57:47.252Z,1.10
2023-05-13T18:00:22.016Z,0.90
2023-05-13T18:02:55.614Z,0.70
2023-05-13T18:05:28.704Z,0.70
2023-05-13T18:08:03.249Z,0.90
2023-05-13T18:10:36.632Z,0.60
2023-05-13T18:13:10.887Z,0.70
2023-05-13T18:15:45.287Z,0.70
2023-05-13T18:18:18.704Z,1.00
2023-05-13T18:20:52.216Z,1.30
2023-05-13T18:23:26.060Z,0.70
2023-05-13T18:25:55.441Z,0.50
2023-05-13T18:28:23.803Z,0.90
2023-05-13T18:30:58.959Z,1.00
2023-05-13T18:33:33.827Z,0.70
2023-05-13T18:35:56.800Z,0.70
2023-05-13T18:38:30.799Z,0.60
2023-05-13T18:41:05.819Z,0.70
2023-05-13T18:43:40.698Z,0.80
2023-05-13T18:46:17.899Z,1.00
2023-05-13T18:48:52.251Z,0.90
2023-05-13T18:51:26.799Z,0.90
2023-05-13T18:54:00.947Z,1.00
2023-05-13T18:56:34.429Z,0.70
2023-05-13T18:58:56.448Z,0.90
2023-05-13T19:01:29.697Z,0.70
2023-05-13T19:04:03.455Z,0.70
2023-05-13T19:06:39.043Z,0.90
2023-05-13T19:09:13.548Z,1.10
2023-05-13T19:11:48.033Z,1.10
2023-05-13T19:14:16.140Z,1.10
2023-05-13T19:16:50.386Z,0.60
2023-05-13T19:19:12.791Z,1.10
2023-05-13T19:21:46.026Z,0.80
2023-05-13T19:24:21.466Z,1.00
2023-05-13T19:26:56.409Z,0.60
2023-05-13T19:29:29.554Z,0.90
2023-05-13T19:31:56.209Z,0.60
2023-05-13T19:34:19.799Z,1.00
2023-05-13T19:36:42.341Z,1.20
2023-05-13T19:39:16.068Z,1.20
2023-05-13T19:41:39.586Z,1.00
2023-05-13T19:44:12.928Z,0.80
2023-05-13T19:46:47.835Z,0.80
2023-05-13T19:49:16.369Z,0.70
2023-05-13T19:51:39.218Z,0.70
2023-05-13T19:54:14.798Z,0.70
2023-05-13T19:56:43.646Z,0.80
2023-05-13T19:59:18.501Z,0.90
2023-05-13T20:01:53.114Z,1.00
2023-05-13T20:04:26.126Z,1.00
2023-05-13T20:07:01.198Z,1.00
2023-05-13T20:09:35.318Z,1.10
2023-05-13T20:12:02.534Z,0.70
2023-05-13T20:14:44.498Z,0.80
2023-05-13T20:17:10.331Z,0.60
2023-05-13T20:19:45.353Z,0.90
2023-05-13T20:22:19.447Z,0.70
2023-05-13T20:24:55.577Z,0.70
2023-05-13T20:27:31.169Z,0.70
2023-05-13T20:29:56.270Z,0.70
2023-05-13T20:32:32.458Z,0.80
2023-05-13T20:35:07.578Z,0.90
2023-05-13T20:37:31.482Z,0.80
2023-05-13T20:40:07.858Z,0.70
2023-05-13T20:42:41.623Z,0.70
2023-05-13T20:45:17.602Z,0.90
2023-05-13T20:47:45.372Z,1.70
2023-05-13T20:50:19.951Z,0.70
2023-05-13T20:52:53.154Z,0.60
2023-05-13T20:55:26.866Z,1.00
2023-05-13T20:58:02.337Z,0.70
2023-05-13T21:00:36.305Z,0.70
2023-05-13T21:02:59.670Z,0.50
2023-05-13T21:05:34.652Z,0.80
2023-05-13T21:08:08.763Z,0.70
2023-05-13T21:10:42.322Z,2.60
2023-05-13T21:13:18.404Z,1.00
2023-05-13T21:15:46.904Z,0.60
2023-05-13T21:18:13.564Z,1.40
2023-05-13T21:20:47.748Z,0.90
2023-05-13T21:23:21.189Z,1.70
2023-05-13T21:25:47.887Z,1.00
2023-05-13T21:28:21.735Z,0.80
2023-05-13T21:30:55.263Z,0.70
2023-05-13T21:33:29.439Z,0.80
2023-05-13T21:36:03.007Z,0.70
2023-05-13T21:38:35.798Z,1.40
2023-05-13T21:41:11.357Z,0.70
2023-05-13T21:43:46.048Z,0.90
2023-05-13T21:46:21.743Z,0.80
2023-05-13T21:48:55.831Z,0.80
2023-05-13T21:51:34.201Z,2.50
2023-05-13T21:53:56.935Z,3.00
2023-05-13T21:56:30.449Z,1.40
2023-05-13T21:59:04.400Z,0.80
2023-05-13T22:01:37.859Z,0.60
2023-05-13T22:04:05.372Z,0.90
2023-05-13T22:06:39.976Z,1.20
2023-05-13T22:09:03.462Z,0.60
2023-05-13T22:11:36.655Z,0.70
2023-05-13T22:14:11.949Z,2.80
2023-05-13T22:16:34.855Z,0.90
2023-05-13T22:18:59.910Z,0.80
2023-05-13T22:21:34.591Z,0.60
2023-05-13T22:24:09.414Z,1.20
2023-05-13T22:26:45.011Z,0.90
2023-05-13T22:29:12.466Z,0.70
2023-05-13T22:31:41.995Z,1.00
2023-05-13T22:34:16.672Z,0.80
2023-05-13T22:36:51.121Z,5.90
2023-05-13T22:39:23.380Z,4.80
2023-05-13T22:41:44.901Z,7.10
2023-05-13T22:44:18.627Z,2.10
2023-05-13T22:46:55.212Z,1.00
2023-05-13T22:49:29.501Z,0.80
2023-05-13T22:51:57.470Z,0.80
2023-05-13T22:54:31.419Z,15.20
2023-05-13T22:57:05.344Z,8.00
2023-05-13T22:59:39.241Z,10.50
2023-05-13T23:02:15.000Z,2.50
2023-05-13T23:04:48.664Z,1.50
2023-05-13T23:07:17.181Z,5.50
2023-05-13T23:09:43.900Z,3.20
2023-05-13T23:12:17.625Z,3.90
2023-05-13T23:14:48.636Z,11.20
2023-05-13T23:17:24.667Z,5.40
2023-05-13T23:19:49.468Z,8.50
2023-05-13T23:22:12.251Z,7.80
2023-05-13T23:24:46.956Z,8.30
2023-05-13T23:27:15.858Z,9.00
2023-05-13T23:29:36.976Z,9.10
2023-05-13T23:32:12.899Z,9.10
2023-05-13T23:34:39.378Z,8.70
2023-05-13T23:37:04.187Z,7.40
2023-05-13T23:41:57.682Z,10.00
2023-05-13T23:44:22.194Z,11.80
2023-05-13T23:46:50.620Z,12.90
2023-05-13T23:49:23.895Z,13.90
2023-05-13T23:51:58.129Z,17.60
2023-05-13T23:54:32.229Z,6.10
2023-05-13T23:57:01.966Z,13.10
2023-05-13T23:59:35.974Z,8.40
